sensor_id;sensor_type;location;lat;lon;timestamp;temperature;humidity
34766;DHT22;20984;43.508;1.504;2023-08-06T00:00:20;17.20;99.90
34766;DHT22;20984;43.508;1.504;2023-08-06T00:02:46;17.20;99.90
34766;DHT22;20984;43.508;1.504;2023-08-06T00:05:11;17.20;99.90
34766;DHT22;20984;43.508;1.504;2023-08-06T00:07:37;17.20;99.90
34766;DHT22;20984;43.508;1.504;2023-08-06T00:10:03;17.20;99.90
34766;DHT22;20984;43.508;1.504;2023-08-06T00:12:29;17.20;99.90
34766;DHT22;20984;43.508;1.504;2023-08-06T00:14:54;17.20;99.90
34766;DHT22;20984;43.508;1.504;2023-08-06T00:17:20;17.20;99.90
34766;DHT22;20984;43.508;1.504;2023-08-06T00:19:45;17.30;99.90
34766;DHT22;20984;43.508;1.504;2023-08-06T00:22:11;17.30;99.90
34766;DHT22;20984;43.508;1.504;2023-08-06T00:24:37;17.40;99.90
34766;DHT22;20984;43.508;1.504;2023-08-06T00:27:03;17.40;99.90
34766;DHT22;20984;43.508;1.504;2023-08-06T00:29:28;17.40;99.90
34766;DHT22;20984;43.508;1.504;2023-08-06T00:31:54;17.40;99.90
34766;DHT22;20984;43.508;1.504;2023-08-06T00:34:20;17.40;99.90
34766;DHT22;20984;43.508;1.504;2023-08-06T00:36:46;17.40;99.90
34766;DHT22;20984;43.508;1.504;2023-08-06T00:39:11;17.40;99.90
34766;DHT22;20984;43.508;1.504;2023-08-06T00:41:37;17.50;99.90
34766;DHT22;20984;43.508;1.504;2023-08-06T00:44:03;17.40;99.90
34766;DHT22;20984;43.508;1.504;2023-08-06T00:46:29;17.40;99.90
34766;DHT22;20984;43.508;1.504;2023-08-06T00:48:55;17.40;99.90
34766;DHT22;20984;43.508;1.504;2023-08-06T00:51:22;17.40;99.90
34766;DHT22;20984;43.508;1.504;2023-08-06T00:53:49;17.40;99.90
34766;DHT22;20984;43.508;1.504;2023-08-06T00:56:15;17.40;99.90
34766;DHT22;20984;43.508;1.504;2023-08-06T00:58:41;17.30;99.90
34766;DHT22;20984;43.508;1.504;2023-08-06T01:01:07;17.20;99.90
34766;DHT22;20984;43.508;1.504;2023-08-06T01:03:33;17.20;99.90
34766;DHT22;20984;43.508;1.504;2023-08-06T01:06:00;17.20;99.90
34766;DHT22;20984;43.508;1.504;2023-08-06T01:11:08;17.10;99.90
34766;DHT22;20984;43.508;1.504;2023-08-06T01:13:45;17.10;99.90
34766;DHT22;20984;43.508;1.504;2023-08-06T01:16:15;17.10;99.90
34766;DHT22;20984;43.508;1.504;2023-08-06T01:18:42;17.00;99.90
34766;DHT22;20984;43.508;1.504;2023-08-06T01:21:14;17.00;99.90
34766;DHT22;20984;43.508;1.504;2023-08-06T01:23:40;17.00;99.90
34766;DHT22;20984;43.508;1.504;2023-08-06T01:31:37;17.10;99.90
34766;DHT22;20984;43.508;1.504;2023-08-06T01:34:07;17.10;99.90
34766;DHT22;20984;43.508;1.504;2023-08-06T01:36:35;17.10;99.90
34766;DHT22;20984;43.508;1.504;2023-08-06T01:39:01;17.10;99.90
34766;DHT22;20984;43.508;1.504;2023-08-06T01:41:27;17.20;99.90
34766;DHT22;20984;43.508;1.504;2023-08-06T01:43:53;17.20;99.90
34766;DHT22;20984;43.508;1.504;2023-08-06T01:46:18;17.20;99.90
34766;DHT22;20984;43.508;1.504;2023-08-06T01:48:44;17.20;99.90
34766;DHT22;20984;43.508;1.504;2023-08-06T01:51:09;17.20;99.90
34766;DHT22;20984;43.508;1.504;2023-08-06T01:53:35;17.10;99.90
34766;DHT22;20984;43.508;1.504;2023-08-06T01:56:01;17.00;99.90
34766;DHT22;20984;43.508;1.504;2023-08-06T01:58:26;17.00;99.90
34766;DHT22;20984;43.508;1.504;2023-08-06T02:00:52;17.00;99.90
34766;DHT22;20984;43.508;1.504;2023-08-06T02:03:18;17.00;99.90
34766;DHT22;20984;43.508;1.504;2023-08-06T02:05:43;17.00;99.90
34766;DHT22;20984;43.508;1.504;2023-08-06T02:08:09;17.00;99.90
34766;DHT22;20984;43.508;1.504;2023-08-06T02:10:35;17.00;99.90
34766;DHT22;20984;43.508;1.504;2023-08-06T02:13:01;16.90;99.90
34766;DHT22;20984;43.508;1.504;2023-08-06T02:15:26;16.90;99.90
34766;DHT22;20984;43.508;1.504;2023-08-06T02:17:52;16.90;99.90
34766;DHT22;20984;43.508;1.504;2023-08-06T02:20:18;16.90;99.90
34766;DHT22;20984;43.508;1.504;2023-08-06T02:22:43;16.80;99.90
34766;DHT22;20984;43.508;1.504;2023-08-06T02:25:09;16.80;99.90
34766;DHT22;20984;43.508;1.504;2023-08-06T02:27:35;16.80;99.90
34766;DHT22;20984;43.508;1.504;2023-08-06T02:30:01;16.80;99.90
34766;DHT22;20984;43.508;1.504;2023-08-06T02:32:27;16.80;99.90
34766;DHT22;20984;43.508;1.504;2023-08-06T02:34:55;16.80;99.90
34766;DHT22;20984;43.508;1.504;2023-08-06T02:37:21;16.80;99.90
34766;DHT22;20984;43.508;1.504;2023-08-06T02:39:46;16.80;99.90
34766;DHT22;20984;43.508;1.504;2023-08-06T02:42:12;16.70;99.90
34766;DHT22;20984;43.508;1.504;2023-08-06T02:44:38;16.70;99.90
34766;DHT22;20984;43.508;1.504;2023-08-06T02:47:04;16.80;99.90
34766;DHT22;20984;43.508;1.504;2023-08-06T02:49:29;16.80;99.90
34766;DHT22;20984;43.508;1.504;2023-08-06T02:51:55;16.80;99.90
34766;DHT22;20984;43.508;1.504;2023-08-06T02:54:21;16.90;99.90
34766;DHT22;20984;43.508;1.504;2023-08-06T02:56:46;16.90;99.90
34766;DHT22;20984;43.508;1.504;2023-08-06T02:59:12;17.00;99.90
34766;DHT22;20984;43.508;1.504;2023-08-06T03:01:38;17.00;99.90
34766;DHT22;20984;43.508;1.504;2023-08-06T03:04:04;17.00;99.90
34766;DHT22;20984;43.508;1.504;2023-08-06T03:06:30;17.00;99.90
34766;DHT22;20984;43.508;1.504;2023-08-06T03:08:56;17.00;99.90
34766;DHT22;20984;43.508;1.504;2023-08-06T03:11:21;17.00;99.90
34766;DHT22;20984;43.508;1.504;2023-08-06T03:13:47;17.00;99.90
34766;DHT22;20984;43.508;1.504;2023-08-06T03:16:13;16.90;99.90
34766;DHT22;20984;43.508;1.504;2023-08-06T03:18:39;16.90;99.90
34766;DHT22;20984;43.508;1.504;2023-08-06T03:21:05;16.90;99.90
34766;DHT22;20984;43.508;1.504;2023-08-06T03:23:31;16.90;99.90
34766;DHT22;20984;43.508;1.504;2023-08-06T03:26:03;16.90;99.90
34766;DHT22;20984;43.508;1.504;2023-08-06T03:28:29;17.00;99.90
34766;DHT22;20984;43.508;1.504;2023-08-06T03:31:05;16.90;99.90
34766;DHT22;20984;43.508;1.504;2023-08-06T03:33:30;16.90;99.90
34766;DHT22;20984;43.508;1.504;2023-08-06T03:35:56;16.90;99.90
34766;DHT22;20984;43.508;1.504;2023-08-06T03:38:22;16.80;99.90
34766;DHT22;20984;43.508;1.504;2023-08-06T03:40:48;16.80;99.90
34766;DHT22;20984;43.508;1.504;2023-08-06T03:43:14;16.80;99.90
34766;DHT22;20984;43.508;1.504;2023-08-06T03:45:40;16.90;99.90
34766;DHT22;20984;43.508;1.504;2023-08-06T03:48:06;16.90;99.90
34766;DHT22;20984;43.508;1.504;2023-08-06T03:50:32;16.90;99.90
34766;DHT22;20984;43.508;1.504;2023-08-06T03:52:58;16.90;99.90
34766;DHT22;20984;43.508;1.504;2023-08-06T03:55:23;16.90;99.90
34766;DHT22;20984;43.508;1.504;2023-08-06T03:57:49;16.90;99.90
34766;DHT22;20984;43.508;1.504;2023-08-06T04:00:15;16.90;99.90
34766;DHT22;20984;43.508;1.504;2023-08-06T04:02:40;16.90;99.90
34766;DHT22;20984;43.508;1.504;2023-08-06T04:05:06;16.90;99.90
34766;DHT22;20984;43.508;1.504;2023-08-06T04:07:32;16.90;99.90
34766;DHT22;20984;43.508;1.504;2023-08-06T04:10:00;16.90;99.90
34766;DHT22;20984;43.508;1.504;2023-08-06T04:12:26;16.90;99.90
34766;DHT22;20984;43.508;1.504;2023-08-06T04:14:53;17.00;99.90
34766;DHT22;20984;43.508;1.504;2023-08-06T04:17:19;17.00;99.90
34766;DHT22;20984;43.508;1.504;2023-08-06T04:19:47;17.00;99.90
34766;DHT22;20984;43.508;1.504;2023-08-06T04:22:13;17.10;99.90
34766;DHT22;20984;43.508;1.504;2023-08-06T04:24:39;17.10;99.90
34766;DHT22;20984;43.508;1.504;2023-08-06T04:27:05;17.20;99.90
34766;DHT22;20984;43.508;1.504;2023-08-06T04:29:30;17.20;99.90
34766;DHT22;20984;43.508;1.504;2023-08-06T04:31:56;17.10;99.90
34766;DHT22;20984;43.508;1.504;2023-08-06T04:34:22;17.10;99.90
34766;DHT22;20984;43.508;1.504;2023-08-06T04:36:48;17.00;99.90
34766;DHT22;20984;43.508;1.504;2023-08-06T04:39:14;17.00;99.90
34766;DHT22;20984;43.508;1.504;2023-08-06T04:41:39;17.00;99.90
34766;DHT22;20984;43.508;1.504;2023-08-06T04:44:05;17.00;99.90
34766;DHT22;20984;43.508;1.504;2023-08-06T04:46:30;17.00;99.90
34766;DHT22;20984;43.508;1.504;2023-08-06T04:48:56;17.00;99.90
34766;DHT22;20984;43.508;1.504;2023-08-06T04:51:22;17.00;99.90
34766;DHT22;20984;43.508;1.504;2023-08-06T04:53:47;16.90;99.90
34766;DHT22;20984;43.508;1.504;2023-08-06T04:56:13;16.90;99.90
34766;DHT22;20984;43.508;1.504;2023-08-06T04:58:38;17.00;99.90
34766;DHT22;20984;43.508;1.504;2023-08-06T05:01:04;17.00;99.90
34766;DHT22;20984;43.508;1.504;2023-08-06T05:03:30;17.00;99.90
34766;DHT22;20984;43.508;1.504;2023-08-06T05:05:55;16.90;99.90
34766;DHT22;20984;43.508;1.504;2023-08-06T05:08:21;17.00;99.90
34766;DHT22;20984;43.508;1.504;2023-08-06T05:10:47;16.90;99.90
34766;DHT22;20984;43.508;1.504;2023-08-06T05:13:12;16.90;99.90
34766;DHT22;20984;43.508;1.504;2023-08-06T05:15:38;16.80;99.90
34766;DHT22;20984;43.508;1.504;2023-08-06T05:18:08;16.80;99.90
34766;DHT22;20984;43.508;1.504;2023-08-06T05:20:36;16.80;99.90
34766;DHT22;20984;43.508;1.504;2023-08-06T05:23:02;16.80;99.90
34766;DHT22;20984;43.508;1.504;2023-08-06T05:25:28;16.80;99.90
34766;DHT22;20984;43.508;1.504;2023-08-06T05:27:54;16.80;99.90
34766;DHT22;20984;43.508;1.504;2023-08-06T05:30:20;16.80;99.90
34766;DHT22;20984;43.508;1.504;2023-08-06T05:32:46;16.80;99.90
34766;DHT22;20984;43.508;1.504;2023-08-06T05:35:12;16.80;99.90
34766;DHT22;20984;43.508;1.504;2023-08-06T05:37:38;16.80;99.90
34766;DHT22;20984;43.508;1.504;2023-08-06T05:40:04;16.80;99.90
34766;DHT22;20984;43.508;1.504;2023-08-06T05:42:30;16.80;99.90
34766;DHT22;20984;43.508;1.504;2023-08-06T05:44:55;16.90;99.90
34766;DHT22;20984;43.508;1.504;2023-08-06T05:47:21;16.90;99.90
34766;DHT22;20984;43.508;1.504;2023-08-06T05:49:46;16.90;99.90
34766;DHT22;20984;43.508;1.504;2023-08-06T05:52:12;16.90;99.90
34766;DHT22;20984;43.508;1.504;2023-08-06T05:54:38;16.90;99.90
34766;DHT22;20984;43.508;1.504;2023-08-06T05:57:04;16.90;99.90
34766;DHT22;20984;43.508;1.504;2023-08-06T05:59:30;17.00;99.90
34766;DHT22;20984;43.508;1.504;2023-08-06T06:01:55;17.00;99.90
34766;DHT22;20984;43.508;1.504;2023-08-06T06:04:21;17.00;99.90
34766;DHT22;20984;43.508;1.504;2023-08-06T06:06:47;17.00;99.90
34766;DHT22;20984;43.508;1.504;2023-08-06T06:09:12;17.00;99.90
34766;DHT22;20984;43.508;1.504;2023-08-06T06:11:38;17.00;99.90
34766;DHT22;20984;43.508;1.504;2023-08-06T06:14:04;17.00;99.90
34766;DHT22;20984;43.508;1.504;2023-08-06T06:16:29;17.00;99.90
34766;DHT22;20984;43.508;1.504;2023-08-06T06:18:55;17.00;99.90
34766;DHT22;20984;43.508;1.504;2023-08-06T06:21:23;17.00;99.90
34766;DHT22;20984;43.508;1.504;2023-08-06T06:23:49;17.00;99.90
34766;DHT22;20984;43.508;1.504;2023-08-06T06:26:17;17.00;99.90
34766;DHT22;20984;43.508;1.504;2023-08-06T06:28:42;17.00;99.90
34766;DHT22;20984;43.508;1.504;2023-08-06T06:31:08;17.00;99.90
34766;DHT22;20984;43.508;1.504;2023-08-06T06:33:34;17.10;99.90
34766;DHT22;20984;43.508;1.504;2023-08-06T06:36:00;17.00;99.90
34766;DHT22;20984;43.508;1.504;2023-08-06T06:38:28;17.00;99.90
34766;DHT22;20984;43.508;1.504;2023-08-06T06:40:57;17.10;99.90
34766;DHT22;20984;43.508;1.504;2023-08-06T06:43:23;17.10;99.90
34766;DHT22;20984;43.508;1.504;2023-08-06T06:45:53;17.20;99.90
34766;DHT22;20984;43.508;1.504;2023-08-06T06:48:19;17.20;99.90
34766;DHT22;20984;43.508;1.504;2023-08-06T06:50:47;17.20;99.90
34766;DHT22;20984;43.508;1.504;2023-08-06T06:53:14;17.30;99.90
34766;DHT22;20984;43.508;1.504;2023-08-06T06:55:39;17.30;99.90
34766;DHT22;20984;43.508;1.504;2023-08-06T06:58:05;17.40;99.90
34766;DHT22;20984;43.508;1.504;2023-08-06T07:00:31;17.40;99.90
34766;DHT22;20984;43.508;1.504;2023-08-06T07:02:56;17.50;99.90
34766;DHT22;20984;43.508;1.504;2023-08-06T07:05:22;17.60;99.90
34766;DHT22;20984;43.508;1.504;2023-08-06T07:07:48;17.60;99.90
34766;DHT22;20984;43.508;1.504;2023-08-06T07:10:13;17.60;99.90
34766;DHT22;20984;43.508;1.504;2023-08-06T07:12:39;17.70;99.90
34766;DHT22;20984;43.508;1.504;2023-08-06T07:15:06;17.70;99.90
34766;DHT22;20984;43.508;1.504;2023-08-06T07:17:32;17.80;99.90
34766;DHT22;20984;43.508;1.504;2023-08-06T07:19:57;17.90;99.90
34766;DHT22;20984;43.508;1.504;2023-08-06T07:22:23;17.80;99.90
34766;DHT22;20984;43.508;1.504;2023-08-06T07:24:49;17.80;99.90
34766;DHT22;20984;43.508;1.504;2023-08-06T07:27:15;17.90;99.90
34766;DHT22;20984;43.508;1.504;2023-08-06T07:29:40;17.80;99.90
34766;DHT22;20984;43.508;1.504;2023-08-06T07:32:07;17.80;99.90
34766;DHT22;20984;43.508;1.504;2023-08-06T07:34:33;17.80;99.90
34766;DHT22;20984;43.508;1.504;2023-08-06T07:36:58;17.80;99.90
34766;DHT22;20984;43.508;1.504;2023-08-06T07:39:24;17.80;99.90
34766;DHT22;20984;43.508;1.504;2023-08-06T07:41:50;17.90;99.90
34766;DHT22;20984;43.508;1.504;2023-08-06T07:44:16;18.10;99.90
34766;DHT22;20984;43.508;1.504;2023-08-06T07:46:41;18.10;99.90
34766;DHT22;20984;43.508;1.504;2023-08-06T07:49:08;18.10;99.90
34766;DHT22;20984;43.508;1.504;2023-08-06T07:51:33;18.20;99.90
34766;DHT22;20984;43.508;1.504;2023-08-06T07:53:59;18.20;99.90
34766;DHT22;20984;43.508;1.504;2023-08-06T07:56:24;18.30;99.90
34766;DHT22;20984;43.508;1.504;2023-08-06T07:58:50;18.40;99.90
34766;DHT22;20984;43.508;1.504;2023-08-06T08:01:16;18.50;99.90
34766;DHT22;20984;43.508;1.504;2023-08-06T08:03:41;18.60;99.90
34766;DHT22;20984;43.508;1.504;2023-08-06T08:06:07;18.50;99.90
34766;DHT22;20984;43.508;1.504;2023-08-06T08:08:32;18.60;99.90
34766;DHT22;20984;43.508;1.504;2023-08-06T08:10:58;18.70;99.90
34766;DHT22;20984;43.508;1.504;2023-08-06T08:13:26;19.00;99.90
34766;DHT22;20984;43.508;1.504;2023-08-06T08:15:57;19.10;99.90
34766;DHT22;20984;43.508;1.504;2023-08-06T08:18:23;19.10;99.90
34766;DHT22;20984;43.508;1.504;2023-08-06T08:20:49;19.10;99.90
34766;DHT22;20984;43.508;1.504;2023-08-06T08:23:15;19.10;99.90
34766;DHT22;20984;43.508;1.504;2023-08-06T08:25:40;19.10;99.90
34766;DHT22;20984;43.508;1.504;2023-08-06T08:28:06;19.20;99.90
34766;DHT22;20984;43.508;1.504;2023-08-06T08:30:32;19.30;99.90
34766;DHT22;20984;43.508;1.504;2023-08-06T08:32:58;19.10;99.90
34766;DHT22;20984;43.508;1.504;2023-08-06T08:35:23;19.10;99.90
34766;DHT22;20984;43.508;1.504;2023-08-06T08:37:49;19.00;99.90
34766;DHT22;20984;43.508;1.504;2023-08-06T08:40:15;19.00;99.90
34766;DHT22;20984;43.508;1.504;2023-08-06T08:42:42;19.00;99.90
34766;DHT22;20984;43.508;1.504;2023-08-06T08:45:12;19.20;99.90
34766;DHT22;20984;43.508;1.504;2023-08-06T08:47:42;19.20;99.90
34766;DHT22;20984;43.508;1.504;2023-08-06T08:50:13;19.20;99.90
34766;DHT22;20984;43.508;1.504;2023-08-06T08:52:40;19.10;99.90
34766;DHT22;20984;43.508;1.504;2023-08-06T08:55:07;19.10;99.90
34766;DHT22;20984;43.508;1.504;2023-08-06T08:57:33;19.20;99.90
34766;DHT22;20984;43.508;1.504;2023-08-06T08:59:59;19.30;99.90
34766;DHT22;20984;43.508;1.504;2023-08-06T09:02:28;19.30;99.90
34766;DHT22;20984;43.508;1.504;2023-08-06T09:04:57;19.30;99.90
34766;DHT22;20984;43.508;1.504;2023-08-06T09:07:25;19.40;99.90
34766;DHT22;20984;43.508;1.504;2023-08-06T09:09:52;19.40;99.90
34766;DHT22;20984;43.508;1.504;2023-08-06T09:12:18;19.50;99.90
34766;DHT22;20984;43.508;1.504;2023-08-06T09:14:44;19.40;99.90
34766;DHT22;20984;43.508;1.504;2023-08-06T09:17:10;19.20;99.90
34766;DHT22;20984;43.508;1.504;2023-08-06T09:19:42;19.30;99.90
34766;DHT22;20984;43.508;1.504;2023-08-06T09:22:12;19.40;99.90
34766;DHT22;20984;43.508;1.504;2023-08-06T09:24:40;19.40;99.90
34766;DHT22;20984;43.508;1.504;2023-08-06T09:27:11;19.40;99.90
34766;DHT22;20984;43.508;1.504;2023-08-06T09:29:41;19.40;99.90
34766;DHT22;20984;43.508;1.504;2023-08-06T09:32:07;19.40;99.90
34766;DHT22;20984;43.508;1.504;2023-08-06T09:34:33;19.60;99.90
34766;DHT22;20984;43.508;1.504;2023-08-06T09:36:58;19.70;99.90
34766;DHT22;20984;43.508;1.504;2023-08-06T09:39:28;19.70;99.90
34766;DHT22;20984;43.508;1.504;2023-08-06T09:41:58;19.70;99.90
34766;DHT22;20984;43.508;1.504;2023-08-06T09:44:26;19.70;99.90
34766;DHT22;20984;43.508;1.504;2023-08-06T09:46:53;19.60;99.90
34766;DHT22;20984;43.508;1.504;2023-08-06T09:49:20;19.80;99.90
34766;DHT22;20984;43.508;1.504;2023-08-06T09:51:47;20.10;99.90
34766;DHT22;20984;43.508;1.504;2023-08-06T09:54:16;20.30;99.90
34766;DHT22;20984;43.508;1.504;2023-08-06T09:56:43;20.30;99.90
34766;DHT22;20984;43.508;1.504;2023-08-06T09:59:09;20.30;99.90
34766;DHT22;20984;43.508;1.504;2023-08-06T10:01:36;20.40;99.90
34766;DHT22;20984;43.508;1.504;2023-08-06T10:04:04;20.40;99.90
34766;DHT22;20984;43.508;1.504;2023-08-06T10:06:34;20.80;99.90
34766;DHT22;20984;43.508;1.504;2023-08-06T10:09:01;21.00;99.90
34766;DHT22;20984;43.508;1.504;2023-08-06T10:11:28;21.10;99.90
34766;DHT22;20984;43.508;1.504;2023-08-06T10:14:08;20.80;99.90
34766;DHT22;20984;43.508;1.504;2023-08-06T10:16:35;20.60;99.90
34766;DHT22;20984;43.508;1.504;2023-08-06T10:19:03;20.60;99.90
34766;DHT22;20984;43.508;1.504;2023-08-06T10:21:31;20.50;99.90
34766;DHT22;20984;43.508;1.504;2023-08-06T10:23:57;20.60;99.90
34766;DHT22;20984;43.508;1.504;2023-08-06T10:26:29;20.80;99.90
34766;DHT22;20984;43.508;1.504;2023-08-06T10:28:55;20.80;99.90
34766;DHT22;20984;43.508;1.504;2023-08-06T10:31:54;20.90;99.90
34766;DHT22;20984;43.508;1.504;2023-08-06T10:34:21;21.00;99.90
34766;DHT22;20984;43.508;1.504;2023-08-06T10:36:46;21.10;99.90
34766;DHT22;20984;43.508;1.504;2023-08-06T10:39:15;20.90;99.90
34766;DHT22;20984;43.508;1.504;2023-08-06T10:41:44;20.80;99.90
34766;DHT22;20984;43.508;1.504;2023-08-06T10:44:11;20.80;99.90
34766;DHT22;20984;43.508;1.504;2023-08-06T10:46:37;21.10;99.90
34766;DHT22;20984;43.508;1.504;2023-08-06T10:49:04;21.30;99.90
34766;DHT22;20984;43.508;1.504;2023-08-06T10:51:30;21.40;99.90
34766;DHT22;20984;43.508;1.504;2023-08-06T10:53:56;21.40;99.90
34766;DHT22;20984;43.508;1.504;2023-08-06T10:56:24;21.60;99.90
34766;DHT22;20984;43.508;1.504;2023-08-06T10:58:56;21.90;99.90
34766;DHT22;20984;43.508;1.504;2023-08-06T11:01:23;21.90;99.90
34766;DHT22;20984;43.508;1.504;2023-08-06T11:03:51;21.60;99.90
34766;DHT22;20984;43.508;1.504;2023-08-06T11:06:22;21.50;99.90
34766;DHT22;20984;43.508;1.504;2023-08-06T11:08:53;21.40;99.90
34766;DHT22;20984;43.508;1.504;2023-08-06T11:11:19;21.50;99.90
34766;DHT22;20984;43.508;1.504;2023-08-06T11:13:47;21.40;99.90
34766;DHT22;20984;43.508;1.504;2023-08-06T11:16:15;21.50;99.90
34766;DHT22;20984;43.508;1.504;2023-08-06T11:18:41;21.70;99.90
34766;DHT22;20984;43.508;1.504;2023-08-06T11:21:07;21.60;99.90
34766;DHT22;20984;43.508;1.504;2023-08-06T11:23:34;21.80;99.90
34766;DHT22;20984;43.508;1.504;2023-08-06T11:26:00;22.00;99.90
34766;DHT22;20984;43.508;1.504;2023-08-06T11:28:26;21.80;99.90
34766;DHT22;20984;43.508;1.504;2023-08-06T11:30:53;21.60;99.90
34766;DHT22;20984;43.508;1.504;2023-08-06T11:33:22;21.50;99.90
34766;DHT22;20984;43.508;1.504;2023-08-06T11:35:51;21.50;99.90
34766;DHT22;20984;43.508;1.504;2023-08-06T11:38:17;21.70;99.90
34766;DHT22;20984;43.508;1.504;2023-08-06T11:40:47;22.00;99.10
34766;DHT22;20984;43.508;1.504;2023-08-06T11:43:13;22.10;97.40
34766;DHT22;20984;43.508;1.504;2023-08-06T11:45:39;22.10;97.50
34766;DHT22;20984;43.508;1.504;2023-08-06T11:48:06;22.20;97.70
34766;DHT22;20984;43.508;1.504;2023-08-06T11:50:36;22.10;98.10
34766;DHT22;20984;43.508;1.504;2023-08-06T11:53:02;21.70;99.00
34766;DHT22;20984;43.508;1.504;2023-08-06T11:55:28;21.60;98.70
34766;DHT22;20984;43.508;1.504;2023-08-06T11:57:55;21.60;99.10
34766;DHT22;20984;43.508;1.504;2023-08-06T12:00:23;21.70;98.90
34766;DHT22;20984;43.508;1.504;2023-08-06T12:02:50;21.70;99.00
34766;DHT22;20984;43.508;1.504;2023-08-06T12:05:28;21.90;99.00
34766;DHT22;20984;43.508;1.504;2023-08-06T12:07:58;22.30;98.80
34766;DHT22;20984;43.508;1.504;2023-08-06T12:10:25;22.50;96.50
34766;DHT22;20984;43.508;1.504;2023-08-06T12:12:52;22.40;96.60
34766;DHT22;20984;43.508;1.504;2023-08-06T12:15:18;22.40;96.90
34766;DHT22;20984;43.508;1.504;2023-08-06T12:17:44;22.10;97.60
34766;DHT22;20984;43.508;1.504;2023-08-06T12:20:10;21.90;98.50
34766;DHT22;20984;43.508;1.504;2023-08-06T12:22:37;21.90;98.40
34766;DHT22;20984;43.508;1.504;2023-08-06T12:25:07;22.00;97.80
34766;DHT22;20984;43.508;1.504;2023-08-06T12:27:34;22.40;97.80
34766;DHT22;20984;43.508;1.504;2023-08-06T12:30:00;22.70;98.50
34766;DHT22;20984;43.508;1.504;2023-08-06T12:32:26;22.80;96.40
34766;DHT22;20984;43.508;1.504;2023-08-06T12:34:51;23.10;97.10
34766;DHT22;20984;43.508;1.504;2023-08-06T12:37:17;23.30;94.90
34766;DHT22;20984;43.508;1.504;2023-08-06T12:39:43;23.00;94.60
34766;DHT22;20984;43.508;1.504;2023-08-06T12:42:08;22.80;94.70
34766;DHT22;20984;43.508;1.504;2023-08-06T12:44:35;22.90;93.90
34766;DHT22;20984;43.508;1.504;2023-08-06T12:47:01;22.80;92.20
34766;DHT22;20984;43.508;1.504;2023-08-06T12:49:27;22.80;92.70
34766;DHT22;20984;43.508;1.504;2023-08-06T12:51:54;22.60;93.20
34766;DHT22;20984;43.508;1.504;2023-08-06T12:54:20;22.50;93.00
34766;DHT22;20984;43.508;1.504;2023-08-06T12:56:47;22.60;92.40
34766;DHT22;20984;43.508;1.504;2023-08-06T12:59:17;22.50;92.40
34766;DHT22;20984;43.508;1.504;2023-08-06T13:01:43;22.50;92.20
34766;DHT22;20984;43.508;1.504;2023-08-06T13:04:09;22.60;91.80
34766;DHT22;20984;43.508;1.504;2023-08-06T13:06:35;22.90;91.70
34766;DHT22;20984;43.508;1.504;2023-08-06T13:09:11;23.20;92.50
34766;DHT22;20984;43.508;1.504;2023-08-06T13:11:38;23.20;91.80
34766;DHT22;20984;43.508;1.504;2023-08-06T13:14:11;23.00;92.30
34766;DHT22;20984;43.508;1.504;2023-08-06T13:16:38;22.90;92.20
34766;DHT22;20984;43.508;1.504;2023-08-06T13:19:05;22.80;92.10
34766;DHT22;20984;43.508;1.504;2023-08-06T13:21:33;22.80;92.20
34766;DHT22;20984;43.508;1.504;2023-08-06T13:24:00;22.90;92.00
34766;DHT22;20984;43.508;1.504;2023-08-06T13:26:27;23.00;91.10
34766;DHT22;20984;43.508;1.504;2023-08-06T13:28:52;23.30;89.50
34766;DHT22;20984;43.508;1.504;2023-08-06T13:31:18;23.30;90.80
34766;DHT22;20984;43.508;1.504;2023-08-06T13:33:44;23.30;91.00
34766;DHT22;20984;43.508;1.504;2023-08-06T13:36:09;23.10;90.60
34766;DHT22;20984;43.508;1.504;2023-08-06T13:38:35;23.00;91.70
34766;DHT22;20984;43.508;1.504;2023-08-06T13:41:01;23.00;90.90
34766;DHT22;20984;43.508;1.504;2023-08-06T13:43:27;23.20;90.80
34766;DHT22;20984;43.508;1.504;2023-08-06T13:45:53;23.40;90.70
34766;DHT22;20984;43.508;1.504;2023-08-06T13:48:19;23.80;89.80
34766;DHT22;20984;43.508;1.504;2023-08-06T13:50:44;23.60;89.90
34766;DHT22;20984;43.508;1.504;2023-08-06T13:53:10;23.60;89.30
34766;DHT22;20984;43.508;1.504;2023-08-06T13:55:36;23.40;90.10
34766;DHT22;20984;43.508;1.504;2023-08-06T13:58:01;23.50;89.80
34766;DHT22;20984;43.508;1.504;2023-08-06T14:00:28;23.70;90.30
34766;DHT22;20984;43.508;1.504;2023-08-06T14:02:53;24.10;88.20
34766;DHT22;20984;43.508;1.504;2023-08-06T14:05:19;23.90;86.20
34766;DHT22;20984;43.508;1.504;2023-08-06T14:07:44;24.00;86.10
34766;DHT22;20984;43.508;1.504;2023-08-06T14:10:10;24.20;85.20
34766;DHT22;20984;43.508;1.504;2023-08-06T14:12:36;24.20;85.20
34766;DHT22;20984;43.508;1.504;2023-08-06T14:15:02;24.20;84.70
34766;DHT22;20984;43.508;1.504;2023-08-06T14:17:29;23.80;85.10
34766;DHT22;20984;43.508;1.504;2023-08-06T14:19:54;23.80;86.60
34766;DHT22;20984;43.508;1.504;2023-08-06T14:22:21;23.60;87.60
34766;DHT22;20984;43.508;1.504;2023-08-06T14:24:47;23.80;87.70
34766;DHT22;20984;43.508;1.504;2023-08-06T14:27:13;24.00;88.40
34766;DHT22;20984;43.508;1.504;2023-08-06T14:29:38;23.80;87.60
34766;DHT22;20984;43.508;1.504;2023-08-06T14:32:04;23.80;88.10
34766;DHT22;20984;43.508;1.504;2023-08-06T14:34:30;23.90;87.80
34766;DHT22;20984;43.508;1.504;2023-08-06T14:36:55;23.90;87.70
34766;DHT22;20984;43.508;1.504;2023-08-06T14:39:21;23.70;87.20
34766;DHT22;20984;43.508;1.504;2023-08-06T14:41:47;23.50;88.30
34766;DHT22;20984;43.508;1.504;2023-08-06T14:44:13;23.30;89.30
34766;DHT22;20984;43.508;1.504;2023-08-06T14:46:39;23.50;89.80
34766;DHT22;20984;43.508;1.504;2023-08-06T14:49:04;24.30;88.10
34766;DHT22;20984;43.508;1.504;2023-08-06T14:51:30;24.70;86.50
34766;DHT22;20984;43.508;1.504;2023-08-06T14:53:56;25.80;83.60
34766;DHT22;20984;43.508;1.504;2023-08-06T14:56:22;26.90;78.70
34766;DHT22;20984;43.508;1.504;2023-08-06T14:58:48;27.70;77.80
34766;DHT22;20984;43.508;1.504;2023-08-06T15:01:14;28.10;73.30
34766;DHT22;20984;43.508;1.504;2023-08-06T15:03:39;27.60;74.30
34766;DHT22;20984;43.508;1.504;2023-08-06T15:06:05;26.70;75.10
34766;DHT22;20984;43.508;1.504;2023-08-06T15:08:31;26.60;76.30
34766;DHT22;20984;43.508;1.504;2023-08-06T15:10:56;25.70;76.30
34766;DHT22;20984;43.508;1.504;2023-08-06T15:13:22;26.20;80.10
34766;DHT22;20984;43.508;1.504;2023-08-06T15:15:49;27.50;76.10
34766;DHT22;20984;43.508;1.504;2023-08-06T15:18:15;28.90;74.20
34766;DHT22;20984;43.508;1.504;2023-08-06T15:20:41;28.60;71.70
34766;DHT22;20984;43.508;1.504;2023-08-06T15:23:06;27.50;73.60
34766;DHT22;20984;43.508;1.504;2023-08-06T15:25:32;27.00;75.10
34766;DHT22;20984;43.508;1.504;2023-08-06T15:27:58;27.10;74.80
34766;DHT22;20984;43.508;1.504;2023-08-06T15:30:23;27.70;72.90
34766;DHT22;20984;43.508;1.504;2023-08-06T15:32:49;27.80;70.60